createdAt,value
2019-04-05T00:01:46.033Z,12.54
2019-04-05T00:07:10.871Z,12.50
2019-04-05T00:12:35.550Z,12.31
2019-04-05T00:17:59.229Z,12.35
2019-04-05T00:23:23.626Z,12.35
2019-04-05T00:28:51.568Z,12.28
2019-04-05T00:34:14.731Z,12.23
2019-04-05T00:39:38.658Z,12.09
2019-04-05T00:45:03.508Z,11.92
2019-04-05T00:50:27.371Z,11.92
2019-04-05T00:55:51.490Z,11.90
2019-04-05T01:01:16.364Z,11.69
2019-04-05T01:06:41.041Z,11.49
2019-04-05T01:12:05.873Z,11.45
2019-04-05T01:17:30.255Z,11.30
2019-04-05T01:22:55.455Z,11.20
2019-04-05T01:28:19.884Z,10.97
2019-04-05T01:33:44.758Z,10.73
2019-04-05T01:39:09.577Z,10.57
2019-04-05T01:44:34.040Z,10.44
2019-04-05T01:49:57.449Z,10.46
2019-04-05T01:55:22.239Z,10.40
2019-04-05T02:00:47.407Z,10.42
2019-04-05T02:06:11.893Z,10.37
2019-04-05T02:11:36.450Z,10.31
2019-04-05T02:17:00.935Z,10.28
2019-04-05T02:22:25.942Z,10.18
2019-04-05T02:27:49.579Z,10.21
2019-04-05T02:33:13.561Z,10.17
2019-04-05T02:38:38.597Z,10.08
2019-04-05T02:44:03.477Z,10.04
2019-04-05T02:49:30.403Z,9.99
2019-04-05T02:54:55.205Z,10.05
2019-04-05T03:00:20.282Z,10.00
2019-04-05T03:05:46.821Z,9.99
2019-04-05T03:11:14.039Z,9.95
2019-04-05T03:16:42.256Z,9.80
2019-04-05T03:22:09.184Z,9.81
2019-04-05T03:27:37.044Z,9.76
2019-04-05T03:33:00.881Z,9.62
2019-04-05T03:38:25.832Z,9.61
2019-04-05T03:43:50.868Z,9.62
2019-04-05T03:49:14.577Z,9.57
2019-04-05T03:54:38.684Z,9.44
2019-04-05T04:00:03.895Z,9.28
2019-04-05T04:05:29.545Z,9.13
2019-04-05T04:10:55.183Z,8.99
2019-04-05T04:16:20.330Z,8.96
2019-04-05T04:22:04.779Z,8.82
2019-04-05T04:27:29.896Z,8.67
2019-04-05T04:32:54.877Z,8.57
2019-04-05T04:38:19.435Z,8.63
2019-04-05T04:43:44.965Z,8.30
2019-04-05T04:49:10.054Z,7.96
2019-04-05T04:54:34.836Z,7.82
2019-04-05T05:00:00.163Z,7.73
2019-04-05T05:05:23.868Z,7.82
2019-04-05T05:10:48.478Z,8.26
2019-04-05T05:16:13.600Z,8.80
2019-04-05T05:21:37.650Z,9.19
2019-04-05T05:27:01.949Z,9.56
2019-04-05T05:32:26.581Z,10.09
2019-04-05T05:37:51.324Z,10.39
2019-04-05T05:43:16.172Z,10.63
2019-04-05T05:48:41.145Z,10.49
2019-04-05T05:54:05.667Z,9.70
2019-04-05T05:59:30.826Z,9.30
2019-04-05T06:04:55.186Z,8.68
2019-04-05T06:10:19.678Z,8.60
2019-04-05T06:15:44.177Z,8.46
2019-04-05T06:21:09.102Z,7.70
2019-04-05T06:26:34.131Z,7.29
2019-04-05T06:31:58.087Z,6.88
2019-04-05T06:37:21.739Z,7.03
2019-04-05T06:42:46.278Z,6.86
2019-04-05T06:48:18.936Z,6.63
2019-04-05T06:53:35.740Z,6.76
2019-04-05T06:58:59.380Z,6.94
2019-04-05T07:04:24.455Z,6.91
2019-04-05T07:09:48.858Z,7.22
2019-04-05T07:15:13.596Z,7.22
2019-04-05T07:20:38.406Z,6.95
2019-04-05T07:26:02.610Z,7.17
2019-04-05T07:31:27.250Z,7.46
2019-04-05T07:36:51.656Z,7.51
2019-04-05T07:42:15.697Z,7.55
2019-04-05T07:47:40.780Z,7.74
2019-04-05T07:53:04.805Z,7.35
2019-04-05T07:58:29.373Z,7.26
2019-04-05T08:03:54.234Z,7.71
2019-04-05T08:09:20.075Z,7.97
2019-04-05T08:14:45.330Z,7.97
2019-04-05T08:20:09.757Z,7.98
2019-04-05T08:25:34.939Z,8.28
2019-04-05T08:30:59.624Z,8.58
2019-04-05T08:36:23.928Z,8.49
2019-04-05T08:41:49.686Z,8.50
2019-04-05T08:47:14.152Z,8.75
2019-04-05T08:52:38.120Z,8.83
2019-04-05T08:58:01.894Z,8.99
2019-04-05T09:03:25.639Z,9.15
2019-04-05T09:08:50.683Z,8.94
2019-04-05T09:14:14.390Z,9.41
2019-04-05T09:19:38.722Z,9.22
2019-04-05T09:25:02.778Z,9.03
2019-04-05T09:30:26.764Z,9.15
2019-04-05T09:35:51.271Z,9.17
2019-04-05T09:41:15.482Z,9.23
2019-04-05T09:46:46.501Z,9.21
2019-04-05T09:52:06.142Z,9.42
2019-04-05T09:57:30.044Z,9.38
2019-04-05T10:02:54.726Z,9.45
2019-04-05T10:08:19.591Z,9.53
2019-04-05T10:13:44.739Z,9.57
2019-04-05T10:19:09.771Z,9.64
2019-04-05T10:24:34.033Z,9.69
2019-04-05T10:29:58.476Z,9.90
2019-04-05T10:35:22.993Z,9.80
2019-04-05T10:40:47.835Z,9.87
2019-04-05T10:46:11.593Z,10.21
2019-04-05T10:51:35.647Z,10.61
2019-04-05T10:57:00.214Z,10.60
2019-04-05T11:02:25.406Z,11.08
2019-04-05T11:07:50.043Z,11.36
2019-04-05T11:13:15.008Z,11.63
2019-04-05T11:18:40.121Z,11.56
2019-04-05T11:24:04.974Z,11.78
2019-04-05T11:29:29.536Z,12.00
2019-04-05T11:34:54.452Z,12.63
2019-04-05T11:40:18.400Z,13.53
2019-04-05T11:45:42.898Z,13.67
2019-04-05T11:51:07.648Z,13.82
2019-04-05T11:56:32.309Z,13.69
2019-04-05T12:02:15.043Z,15.01
2019-04-05T12:07:39.557Z,14.82
2019-04-05T12:13:03.732Z,16.03
2019-04-05T12:18:28.195Z,16.07
2019-04-05T12:23:52.222Z,16.01
2019-04-05T12:29:16.397Z,16.94
2019-04-05T12:34:39.955Z,18.09
2019-04-05T12:40:07.504Z,17.21
2019-04-05T12:45:30.319Z,17.96
2019-04-05T12:51:00.929Z,18.42
2019-04-05T12:56:20.847Z,17.41
2019-04-05T13:01:45.554Z,17.47
2019-04-05T13:07:10.822Z,18.35
2019-04-05T13:12:35.047Z,18.62
2019-04-05T13:18:01.266Z,18.81
2019-04-05T13:23:25.348Z,18.32
2019-04-05T13:28:49.288Z,18.36
2019-04-05T13:34:13.528Z,19.37
2019-04-05T13:39:37.306Z,19.93
2019-04-05T13:45:01.803Z,19.73
2019-04-05T13:50:26.255Z,19.47
2019-04-05T13:55:50.664Z,18.33
2019-04-05T14:01:14.832Z,19.72
2019-04-05T14:06:38.730Z,19.81
2019-04-05T14:12:04.029Z,18.66
2019-04-05T14:17:28.203Z,18.11
2019-04-05T14:22:52.504Z,19.23
2019-04-05T14:28:16.732Z,18.63
2019-04-05T14:33:40.392Z,17.95
2019-04-05T14:39:07.014Z,19.20
2019-04-05T14:44:31.147Z,18.93
2019-04-05T14:49:54.962Z,19.42
2019-04-05T14:55:19.881Z,19.71
2019-04-05T15:00:44.455Z,18.40
2019-04-05T15:06:09.015Z,18.05
2019-04-05T15:11:33.368Z,18.21
2019-04-05T15:16:57.289Z,17.67
2019-04-05T15:22:21.813Z,17.69
2019-04-05T15:27:46.299Z,17.06
2019-04-05T15:33:11.089Z,18.00
2019-04-05T15:38:35.309Z,18.13
2019-04-05T15:43:59.708Z,17.14
2019-04-05T15:49:24.196Z,17.92
2019-04-05T15:54:47.685Z,18.09
2019-04-05T16:00:14.183Z,17.62
2019-04-05T16:05:37.633Z,17.90
2019-04-05T16:11:02.793Z,18.13
2019-04-05T16:16:27.113Z,18.19
2019-04-05T16:21:51.543Z,17.65
2019-04-05T16:27:16.019Z,17.64
2019-04-05T16:32:39.525Z,17.42
2019-04-05T16:38:03.808Z,16.80
2019-04-05T16:43:28.405Z,16.73
2019-04-05T16:48:52.498Z,16.53
2019-04-05T16:54:16.202Z,16.35
2019-04-05T16:59:39.655Z,16.13
2019-04-05T17:05:04.633Z,16.00
2019-04-05T17:10:29.056Z,15.72
2019-04-05T17:15:53.562Z,15.50
2019-04-05T17:21:17.753Z,15.25
2019-04-05T17:26:41.535Z,15.09
2019-04-05T17:32:04.869Z,14.90
2019-04-05T17:37:28.521Z,14.70
2019-04-05T17:42:52.768Z,14.60
2019-04-05T17:48:16.145Z,14.44
2019-04-05T17:53:40.348Z,14.27
2019-04-05T17:59:04.891Z,14.10
2019-04-05T18:04:28.472Z,13.93
2019-04-05T18:09:52.653Z,13.74
2019-04-05T18:15:16.750Z,13.58
2019-04-05T18:20:40.390Z,13.36
2019-04-05T18:26:04.785Z,13.18
2019-04-05T18:31:28.893Z,13.14
2019-04-05T18:36:53.114Z,13.18
2019-04-05T18:42:17.609Z,13.11
2019-04-05T18:47:41.396Z,13.01
2019-04-05T18:53:05.871Z,12.93
2019-04-05T18:58:29.934Z,12.93
2019-04-05T19:03:54.186Z,12.94
2019-04-05T19:09:18.056Z,12.94
2019-04-05T19:14:41.968Z,12.97
2019-04-05T19:20:06.154Z,12.94
2019-04-05T19:25:30.325Z,12.91
2019-04-05T19:52:37.257Z,12.13
2019-04-05T19:58:00.996Z,12.04
2019-04-05T20:03:24.525Z,11.95
2019-04-05T20:08:49.115Z,11.93
2019-04-05T20:14:13.262Z,11.96
2019-04-05T20:19:37.914Z,11.87
2019-04-05T20:25:02.761Z,11.79
2019-04-05T20:30:27.234Z,11.71
2019-04-05T20:35:50.795Z,11.74
2019-04-05T20:41:14.550Z,11.72
2019-04-05T20:46:39.140Z,11.68
2019-04-05T20:52:02.738Z,11.71
2019-04-05T20:57:27.995Z,11.65
2019-04-05T21:02:52.229Z,11.65
2019-04-05T21:08:15.918Z,11.59
2019-04-05T21:13:39.907Z,11.49
2019-04-05T21:19:05.050Z,11.41
2019-04-05T21:24:36.062Z,11.26
2019-04-05T21:29:54.573Z,11.13
2019-04-05T21:35:19.074Z,10.94
2019-04-05T21:40:42.629Z,10.76
2019-04-05T21:46:06.885Z,10.58
2019-04-05T21:51:31.121Z,10.39
2019-04-05T21:56:55.572Z,10.28
2019-04-05T22:02:18.964Z,10.17
2019-04-05T22:07:43.256Z,10.12
2019-04-05T22:13:06.630Z,10.09
2019-04-05T22:18:30.172Z,10.09
2019-04-05T22:23:54.665Z,10.00
2019-04-05T22:29:18.503Z,9.99
2019-04-05T22:34:43.211Z,10.12
2019-04-05T22:40:07.723Z,10.22
2019-04-05T22:45:31.618Z,10.32
2019-04-05T22:50:55.686Z,10.37
2019-04-05T22:56:19.692Z,10.43
2019-04-05T23:01:44.167Z,10.47
2019-04-05T23:07:08.710Z,10.32
2019-04-05T23:12:32.209Z,10.12
2019-04-05T23:17:57.079Z,10.05
2019-04-05T23:23:21.437Z,9.90
2019-04-05T23:28:45.920Z,9.78
2019-04-05T23:34:10.216Z,9.79
2019-04-05T23:39:33.836Z,9.76
2019-04-05T23:44:58.521Z,9.89
2019-04-05T23:50:22.117Z,10.17
2019-04-05T23:55:45.771Z,10.44
